createdAt,value
2022-12-15T00:00:42.154Z,11.15
2022-12-15T00:03:30.357Z,9.66
2022-12-15T00:06:18.422Z,10.24
2022-12-15T00:09:09.825Z,10.11
2022-12-15T00:12:01.529Z,11.58
2022-12-15T00:14:49.070Z,10.75
2022-12-15T00:17:36.646Z,10.61
2022-12-15T00:20:24.199Z,9.85
2022-12-15T00:23:11.762Z,10.02
2022-12-15T00:25:59.335Z,10.37
2022-12-15T00:28:46.931Z,11.59
2022-12-15T00:31:34.520Z,12.75
2022-12-15T00:34:22.130Z,12.96
2022-12-15T00:37:09.865Z,10.23
2022-12-15T00:39:59.415Z,10.66
2022-12-15T00:42:47.747Z,9.25
2022-12-15T00:45:37.250Z,8.27
2022-12-15T00:48:24.820Z,7.98
2022-12-15T00:51:12.368Z,7.70
2022-12-15T00:53:59.920Z,7.59
2022-12-15T00:56:47.505Z,7.47
2022-12-15T00:59:35.089Z,7.75
2022-12-15T01:02:22.819Z,8.00
2022-12-15T01:05:10.527Z,8.68
2022-12-15T01:07:58.080Z,8.87
2022-12-15T01:10:45.648Z,8.25
2022-12-15T01:13:33.488Z,8.15
2022-12-15T01:16:21.334Z,7.84
2022-12-15T01:19:08.906Z,6.72
2022-12-15T01:21:56.466Z,5.75
2022-12-15T01:24:44.034Z,4.85
2022-12-15T01:27:31.586Z,4.35
2022-12-15T01:30:19.139Z,4.14
2022-12-15T01:33:06.684Z,3.92
2022-12-15T01:35:54.253Z,3.71
2022-12-15T01:38:41.801Z,3.20
2022-12-15T01:41:29.369Z,3.03
2022-12-15T01:44:16.927Z,2.66
2022-12-15T01:47:04.569Z,2.84
2022-12-15T01:49:52.155Z,2.67
2022-12-15T01:52:39.726Z,2.64
2022-12-15T01:55:27.272Z,2.64
2022-12-15T01:58:16.852Z,2.85
2022-12-15T02:01:04.472Z,2.79
2022-12-15T02:03:52.077Z,3.14
2022-12-15T02:06:39.623Z,3.50
2022-12-15T02:09:27.195Z,3.57
2022-12-15T02:12:14.743Z,3.76
2022-12-15T02:15:02.313Z,3.42
2022-12-15T02:17:49.941Z,3.49
2022-12-15T02:20:37.633Z,3.31
2022-12-15T02:23:27.328Z,3.17
2022-12-15T02:26:15.115Z,3.59
2022-12-15T02:29:02.651Z,3.55
2022-12-15T02:31:50.592Z,3.98
2022-12-15T02:34:38.296Z,4.52
2022-12-15T02:37:25.857Z,5.10
2022-12-15T02:40:13.401Z,4.94
2022-12-15T02:43:00.983Z,5.41
2022-12-15T02:45:48.602Z,5.53
2022-12-15T02:48:36.221Z,6.40
2022-12-15T02:51:23.792Z,7.10
2022-12-15T02:54:11.378Z,7.40
2022-12-15T02:56:58.942Z,7.40
2022-12-15T02:59:46.498Z,8.19
2022-12-15T03:02:34.123Z,8.03
2022-12-15T03:05:21.756Z,7.92
2022-12-15T03:08:09.327Z,7.87
2022-12-15T03:10:56.881Z,7.66
2022-12-15T03:13:44.433Z,6.42
2022-12-15T03:16:32.093Z,5.84
2022-12-15T03:19:19.751Z,5.70
2022-12-15T03:22:07.318Z,5.00
2022-12-15T03:24:54.858Z,4.84
2022-12-15T03:27:42.426Z,4.50
2022-12-15T03:30:29.986Z,4.23
2022-12-15T03:33:19.545Z,4.20
2022-12-15T03:36:07.096Z,3.77
2022-12-15T03:38:54.771Z,3.38
2022-12-15T03:41:42.309Z,3.33
2022-12-15T03:44:29.877Z,3.65
2022-12-15T03:47:17.425Z,3.57
2022-12-15T03:50:05.016Z,3.74
2022-12-15T03:52:52.560Z,3.50
2022-12-15T03:55:40.683Z,3.37
2022-12-15T03:58:28.218Z,3.07
2022-12-15T04:01:15.812Z,3.03
2022-12-15T04:04:03.542Z,2.64
2022-12-15T04:06:51.177Z,2.39
2022-12-15T04:09:38.758Z,1.94
2022-12-15T04:12:26.312Z,1.95
2022-12-15T04:15:33.820Z,1.74
2022-12-15T04:18:41.376Z,1.74
2022-12-15T04:21:29.183Z,1.68
2022-12-15T04:24:16.762Z,1.64
2022-12-15T04:27:04.333Z,1.65
2022-12-15T04:29:51.904Z,1.47
2022-12-15T04:32:39.468Z,1.63
2022-12-15T04:35:27.049Z,1.60
2022-12-15T04:38:14.612Z,1.58
2022-12-15T04:41:02.169Z,1.47
2022-12-15T04:43:49.733Z,1.41
2022-12-15T04:46:37.294Z,1.50
2022-12-15T04:49:24.895Z,1.25
2022-12-15T04:52:12.433Z,1.30
2022-12-15T04:54:59.985Z,1.20
2022-12-15T04:57:47.573Z,1.49
2022-12-15T05:00:35.143Z,1.43
2022-12-15T05:03:22.699Z,1.35
2022-12-15T05:06:10.278Z,1.30
2022-12-15T05:08:57.857Z,1.17
2022-12-15T05:11:45.450Z,1.21
2022-12-15T05:14:33.010Z,1.28
2022-12-15T05:17:20.708Z,1.16
2022-12-15T05:20:08.317Z,1.24
2022-12-15T05:22:55.857Z,1.17
2022-12-15T05:25:43.406Z,1.12
2022-12-15T05:28:30.936Z,1.12
2022-12-15T05:31:18.651Z,1.04
2022-12-15T05:34:06.267Z,1.01
2022-12-15T05:36:53.834Z,1.04
2022-12-15T05:39:41.359Z,1.02
2022-12-15T05:42:28.901Z,1.17
2022-12-15T05:45:16.478Z,1.03
2022-12-15T05:48:04.030Z,0.94
2022-12-15T05:50:51.617Z,1.20
2022-12-15T05:53:39.193Z,0.88
2022-12-15T05:56:26.723Z,0.82
2022-12-15T05:59:14.267Z,1.03
2022-12-15T06:02:01.896Z,1.06
2022-12-15T06:04:49.519Z,0.88
2022-12-15T06:07:37.119Z,0.99
2022-12-15T06:10:24.664Z,1.00
2022-12-15T06:13:12.219Z,0.98
2022-12-15T06:15:59.828Z,1.01
2022-12-15T06:18:50.160Z,0.99
2022-12-15T06:21:37.846Z,1.14
2022-12-15T06:24:25.414Z,0.89
2022-12-15T06:27:12.965Z,1.05
2022-12-15T06:30:00.517Z,1.08
2022-12-15T06:32:49.862Z,1.20
2022-12-15T06:35:37.612Z,1.11
2022-12-15T06:38:25.173Z,1.28
2022-12-15T06:41:12.715Z,1.19
2022-12-15T06:44:00.267Z,1.35
2022-12-15T06:46:47.929Z,1.37
2022-12-15T06:49:35.541Z,1.42
2022-12-15T06:52:23.131Z,1.64
2022-12-15T06:55:10.693Z,1.35
2022-12-15T06:58:00.272Z,1.24
2022-12-15T07:00:47.802Z,1.12
2022-12-15T07:03:35.987Z,1.14
2022-12-15T07:06:23.930Z,1.13
2022-12-15T07:09:11.514Z,1.02
2022-12-15T07:11:59.038Z,1.07
2022-12-15T07:14:53.056Z,1.15
2022-12-15T07:17:41.019Z,1.08
2022-12-15T07:20:28.996Z,1.00
2022-12-15T07:23:16.666Z,1.02
2022-12-15T07:26:09.663Z,1.00
2022-12-15T07:28:58.891Z,0.98
2022-12-15T07:31:48.454Z,1.00
2022-12-15T07:34:36.141Z,1.04
2022-12-15T07:37:23.714Z,1.01
2022-12-15T07:40:11.268Z,1.02
2022-12-15T07:42:58.799Z,0.99
2022-12-15T07:45:51.374Z,0.89
2022-12-15T07:48:39.176Z,0.93
2022-12-15T07:51:26.741Z,0.82
2022-12-15T07:54:14.283Z,0.78
2022-12-15T07:57:01.854Z,1.03
2022-12-15T07:59:49.442Z,1.02
2022-12-15T08:02:37.180Z,2.18
2022-12-15T08:05:24.855Z,2.31
2022-12-15T08:08:15.463Z,2.17
2022-12-15T08:11:03.258Z,2.20
2022-12-15T08:14:10.669Z,2.25
2022-12-15T08:16:58.381Z,2.79
2022-12-15T08:19:46.066Z,3.13
2022-12-15T08:22:33.634Z,4.48
2022-12-15T08:25:21.250Z,6.49
2022-12-15T08:28:08.810Z,5.85
2022-12-15T08:30:56.409Z,5.38
2022-12-15T08:33:43.991Z,4.56
2022-12-15T08:36:31.571Z,7.24
2022-12-15T08:39:19.131Z,6.49
2022-12-15T08:42:06.750Z,6.49
2022-12-15T08:44:54.324Z,5.52
2022-12-15T08:47:41.903Z,5.00
2022-12-15T08:50:29.483Z,4.82
2022-12-15T08:53:32.554Z,6.63
2022-12-15T08:56:20.245Z,7.47
2022-12-15T08:59:07.855Z,8.30
2022-12-15T09:01:55.509Z,8.95
2022-12-15T09:04:43.216Z,8.84
2022-12-15T09:07:30.791Z,10.35
2022-12-15T09:10:18.391Z,10.37
2022-12-15T09:13:05.974Z,11.55
2022-12-15T09:16:09.416Z,12.71
2022-12-15T09:18:58.159Z,13.20
2022-12-15T09:21:45.772Z,12.08
2022-12-15T09:24:35.323Z,13.71
2022-12-15T09:27:23.175Z,12.81
2022-12-15T09:30:10.814Z,11.76
2022-12-15T09:32:58.402Z,11.65
2022-12-15T09:35:46.010Z,11.63
2022-12-15T09:38:33.612Z,12.24
2022-12-15T09:41:21.207Z,12.47
2022-12-15T09:44:08.820Z,10.84
2022-12-15T09:46:56.384Z,11.59
2022-12-15T09:49:43.970Z,11.94
2022-12-15T09:52:31.552Z,13.15
2022-12-15T09:55:19.260Z,13.01
2022-12-15T09:58:10.959Z,11.85
2022-12-15T10:00:58.906Z,11.53
2022-12-15T10:03:46.535Z,11.86
2022-12-15T10:06:36.882Z,11.97
2022-12-15T10:09:24.467Z,12.26
2022-12-15T10:12:12.049Z,11.46
2022-12-15T10:14:59.712Z,11.43
2022-12-15T10:17:48.378Z,10.90
2022-12-15T10:20:37.849Z,10.49
2022-12-15T10:23:25.450Z,10.55
2022-12-15T10:26:13.286Z,10.68
2022-12-15T10:29:00.997Z,10.76
2022-12-15T10:31:50.563Z,10.12
2022-12-15T10:34:38.329Z,9.67
2022-12-15T10:37:25.950Z,9.46
2022-12-15T10:40:13.558Z,9.72
2022-12-15T10:43:01.145Z,10.40
2022-12-15T10:45:48.818Z,8.93
2022-12-15T10:48:36.467Z,9.23
2022-12-15T10:51:24.159Z,9.05
2022-12-15T10:54:11.765Z,8.85
2022-12-15T10:56:59.333Z,9.23
2022-12-15T10:59:46.919Z,9.67
2022-12-15T11:02:38.316Z,9.52
2022-12-15T11:05:26.055Z,9.96
2022-12-15T11:08:13.634Z,9.97
2022-12-15T11:11:01.276Z,9.43
2022-12-15T11:13:48.886Z,10.42
2022-12-15T11:16:38.449Z,10.07
2022-12-15T11:19:26.051Z,9.51
2022-12-15T11:22:13.743Z,9.93
2022-12-15T11:25:03.333Z,9.71
2022-12-15T11:27:50.947Z,10.14
2022-12-15T11:30:38.510Z,8.89
2022-12-15T11:33:26.206Z,8.53
2022-12-15T11:36:13.788Z,9.23
2022-12-15T11:39:01.499Z,8.91
2022-12-15T11:41:49.139Z,8.98
2022-12-15T11:44:37.511Z,9.07
2022-12-15T11:47:25.106Z,8.31
2022-12-15T11:50:12.703Z,8.63
2022-12-15T11:53:00.276Z,8.21
2022-12-15T11:55:47.877Z,8.90
2022-12-15T11:58:36.070Z,8.77
2022-12-15T12:01:24.002Z,8.87
2022-12-15T12:04:11.643Z,9.59
2022-12-15T12:06:59.263Z,8.27
2022-12-15T12:09:46.846Z,8.87
2022-12-15T12:12:36.295Z,8.90
2022-12-15T12:15:23.877Z,8.52
2022-12-15T12:18:11.455Z,7.89
2022-12-15T12:20:59.026Z,8.21
2022-12-15T12:23:46.618Z,8.03
2022-12-15T12:26:34.261Z,7.82
2022-12-15T12:29:21.842Z,7.50
2022-12-15T12:32:09.416Z,7.97
2022-12-15T12:35:30.788Z,8.16
2022-12-15T12:38:05.038Z,8.78
2022-12-15T12:40:52.804Z,9.35
2022-12-15T12:43:40.358Z,9.31
2022-12-15T12:46:27.950Z,11.84
2022-12-15T12:49:16.934Z,12.77
2022-12-15T12:52:07.632Z,13.08
2022-12-15T12:54:55.244Z,12.60
2022-12-15T12:57:42.820Z,12.79
2022-12-15T13:00:30.613Z,12.53
2022-12-15T13:03:18.419Z,12.13
2022-12-15T13:06:06.066Z,11.35
2022-12-15T13:08:53.643Z,10.84
2022-12-15T13:11:43.223Z,9.20
2022-12-15T13:14:30.807Z,9.68
2022-12-15T13:17:27.219Z,9.10
2022-12-15T13:20:15.362Z,11.32
2022-12-15T13:23:02.963Z,10.02
2022-12-15T13:25:55.487Z,9.58
2022-12-15T13:28:43.656Z,9.99
2022-12-15T13:31:31.372Z,11.37
2022-12-15T13:34:19.101Z,17.17
2022-12-15T13:37:06.718Z,8.86
2022-12-15T13:39:54.277Z,8.53
2022-12-15T13:42:53.075Z,9.05
2022-12-15T13:45:44.054Z,9.94
2022-12-15T13:48:31.860Z,10.23
2022-12-15T13:51:19.471Z,10.51
2022-12-15T13:54:07.036Z,10.09
2022-12-15T13:56:54.641Z,9.97
2022-12-15T13:59:42.190Z,10.60
2022-12-15T14:02:29.799Z,10.23
2022-12-15T14:05:17.390Z,9.75
2022-12-15T14:08:04.995Z,9.85
2022-12-15T14:10:52.590Z,10.05
2022-12-15T14:13:40.165Z,10.24
2022-12-15T14:16:27.776Z,10.15
2022-12-15T14:19:15.403Z,9.18
2022-12-15T14:22:03.022Z,9.21
2022-12-15T14:24:50.628Z,8.97
2022-12-15T14:27:38.457Z,9.16
2022-12-15T14:30:26.072Z,9.08
2022-12-15T14:33:13.628Z,9.70
2022-12-15T14:36:01.233Z,9.87
2022-12-15T14:38:48.874Z,9.24
2022-12-15T14:41:36.563Z,10.33
2022-12-15T14:47:31.650Z,12.17
2022-12-15T14:50:23.461Z,11.45
2022-12-15T14:53:12.715Z,11.28
2022-12-15T14:56:00.322Z,9.81
2022-12-15T14:58:47.895Z,10.06
2022-12-15T15:01:35.524Z,10.08
2022-12-15T15:03:11.154Z,11.03
2022-12-15T15:04:23.276Z,9.18
2022-12-15T15:07:10.876Z,10.03
2022-12-15T15:09:58.450Z,9.62
2022-12-15T15:12:46.052Z,9.06
2022-12-15T15:15:33.671Z,8.77
2022-12-15T15:18:21.237Z,8.77
2022-12-15T15:21:08.939Z,10.28
2022-12-15T15:23:58.496Z,10.20
2022-12-15T15:26:46.147Z,10.78
2022-12-15T15:29:33.773Z,11.43
2022-12-15T15:32:21.403Z,10.99
2022-12-15T15:35:09.130Z,9.60
2022-12-15T15:37:56.706Z,8.90
2022-12-15T15:40:44.301Z,10.11
2022-12-15T15:43:31.900Z,10.11
2022-12-15T15:46:19.539Z,7.41
2022-12-15T15:49:07.173Z,6.74
2022-12-15T15:51:54.743Z,6.87
2022-12-15T15:54:42.339Z,6.61
2022-12-15T15:57:32.012Z,6.11
2022-12-15T16:00:19.619Z,6.00
2022-12-15T16:03:07.393Z,5.29
2022-12-15T16:05:55.224Z,5.02
2022-12-15T16:08:44.089Z,4.69
2022-12-15T16:11:31.650Z,4.90
2022-12-15T16:14:19.218Z,4.95
2022-12-15T16:17:06.865Z,4.26
2022-12-15T16:19:56.425Z,3.86
2022-12-15T16:22:44.123Z,3.88
2022-12-15T16:25:38.835Z,3.87
2022-12-15T16:28:30.821Z,4.13
2022-12-15T16:31:18.674Z,4.69
2022-12-15T16:34:06.363Z,4.69
2022-12-15T16:36:53.924Z,5.37
2022-12-15T16:39:41.496Z,4.42
2022-12-15T16:42:29.068Z,4.82
2022-12-15T16:45:16.794Z,4.86
2022-12-15T16:48:04.490Z,5.21
2022-12-15T16:50:52.183Z,5.74
2022-12-15T16:53:39.790Z,5.54
2022-12-15T16:56:27.397Z,5.34
2022-12-15T16:59:32.464Z,4.37
2022-12-15T17:02:21.102Z,4.00
2022-12-15T17:05:08.778Z,4.41
2022-12-15T17:07:56.358Z,3.63
2022-12-15T17:10:43.907Z,3.01
2022-12-15T17:13:37.686Z,3.26
2022-12-15T17:16:26.974Z,2.89
2022-12-15T17:19:20.701Z,4.79
2022-12-15T17:22:08.854Z,4.70
2022-12-15T17:24:56.474Z,4.69
2022-12-15T17:27:44.155Z,4.99
2022-12-15T17:30:31.735Z,5.16
2022-12-15T17:33:19.334Z,4.77
2022-12-15T17:36:08.913Z,5.68
2022-12-15T17:38:56.477Z,5.47
2022-12-15T17:41:59.829Z,5.19
2022-12-15T17:44:48.918Z,4.36
2022-12-15T17:47:39.226Z,4.53
2022-12-15T17:50:26.807Z,3.04
2022-12-15T17:53:14.406Z,2.97
2022-12-15T17:56:01.962Z,3.79
2022-12-15T17:58:49.565Z,3.39
2022-12-15T18:01:37.240Z,3.41
2022-12-15T18:04:24.943Z,2.59
2022-12-15T18:07:12.523Z,2.44
2022-12-15T18:10:00.191Z,2.29
2022-12-15T18:12:47.860Z,2.31
2022-12-15T18:15:35.448Z,2.12
2022-12-15T18:18:23.007Z,1.63
2022-12-15T18:21:10.576Z,2.02
2022-12-15T18:23:58.148Z,2.01
2022-12-15T18:26:46.403Z,2.30
2022-12-15T18:29:33.981Z,1.66
2022-12-15T18:32:21.558Z,1.45
2022-12-15T18:35:09.113Z,1.49
2022-12-15T18:37:56.677Z,1.41
2022-12-15T18:40:44.241Z,1.43
2022-12-15T18:43:32.351Z,1.44
2022-12-15T18:46:20.369Z,1.82
2022-12-15T18:49:07.982Z,2.73
2022-12-15T18:51:55.539Z,2.99
2022-12-15T18:54:43.127Z,3.75
2022-12-15T18:57:30.697Z,5.27
2022-12-15T19:00:18.294Z,5.52
2022-12-15T19:03:06.042Z,4.68
2022-12-15T19:05:53.655Z,5.40
2022-12-15T19:08:41.218Z,4.78
2022-12-15T19:11:28.791Z,4.29
2022-12-15T19:14:16.342Z,4.56
2022-12-15T19:17:03.945Z,2.42
2022-12-15T19:19:51.519Z,2.16
2022-12-15T19:22:39.123Z,3.20
2022-12-15T19:25:26.781Z,2.92
2022-12-15T19:28:14.371Z,3.64
2022-12-15T19:31:01.948Z,2.73
2022-12-15T19:33:49.514Z,2.31
2022-12-15T19:36:37.168Z,1.65
2022-12-15T19:39:24.727Z,2.27
2022-12-15T19:42:13.311Z,2.72
2022-12-15T19:45:00.914Z,2.65
2022-12-15T19:47:48.594Z,2.10
2022-12-15T19:50:36.347Z,1.89
2022-12-15T19:53:24.053Z,1.45
2022-12-15T19:56:11.620Z,1.28
2022-12-15T19:58:59.156Z,0.83
2022-12-15T20:01:46.857Z,0.67
2022-12-15T20:04:34.490Z,0.79
2022-12-15T20:07:22.070Z,0.83
2022-12-15T20:10:09.617Z,0.80
2022-12-15T20:12:57.204Z,0.70
2022-12-15T20:15:44.745Z,0.86
2022-12-15T20:18:32.609Z,0.63
2022-12-15T20:21:22.546Z,0.78
2022-12-15T20:24:10.430Z,0.89
2022-12-15T20:26:58.004Z,0.95
2022-12-15T20:29:45.583Z,0.93
2022-12-15T20:32:38.219Z,1.13
2022-12-15T20:35:26.141Z,1.09
2022-12-15T20:38:13.721Z,0.94
2022-12-15T20:41:01.257Z,0.86
2022-12-15T20:43:48.838Z,0.97
2022-12-15T20:46:36.508Z,0.96
2022-12-15T20:49:24.143Z,1.02
2022-12-15T20:52:11.693Z,1.54
2022-12-15T20:54:59.284Z,2.08
2022-12-15T20:57:46.848Z,2.62
2022-12-15T21:00:34.430Z,3.94
2022-12-15T21:03:22.080Z,3.42
2022-12-15T21:06:09.669Z,4.08
2022-12-15T21:08:57.244Z,4.84
2022-12-15T21:11:44.818Z,6.69
2022-12-15T21:14:32.369Z,6.13
2022-12-15T21:17:19.985Z,6.01
2022-12-15T21:20:07.577Z,5.20
2022-12-15T21:22:55.140Z,4.47
2022-12-15T21:25:42.711Z,4.54
2022-12-15T21:28:30.733Z,3.10
2022-12-15T21:31:18.544Z,2.62
2022-12-15T21:34:06.149Z,2.81
2022-12-15T21:36:55.193Z,2.98
2022-12-15T21:39:43.073Z,2.78
2022-12-15T21:42:30.664Z,2.52
2022-12-15T21:45:18.291Z,2.19
2022-12-15T21:48:05.886Z,2.39
2022-12-15T21:50:53.463Z,2.85
2022-12-15T21:53:42.079Z,3.18
2022-12-15T21:56:29.670Z,2.82
2022-12-15T21:59:17.212Z,2.76
2022-12-15T22:02:05.057Z,2.67
2022-12-15T22:04:52.756Z,2.52
2022-12-15T22:07:42.378Z,2.41
2022-12-15T22:10:29.939Z,2.60
2022-12-15T22:13:17.527Z,3.15
2022-12-15T22:16:05.159Z,3.26
2022-12-15T22:18:52.747Z,2.32
2022-12-15T22:21:42.456Z,2.33
2022-12-15T22:24:30.033Z,2.69
2022-12-15T22:27:17.627Z,2.36
2022-12-15T22:30:05.233Z,2.76
2022-12-15T22:32:52.801Z,3.24
2022-12-15T22:35:41.650Z,2.88
2022-12-15T22:38:29.497Z,3.50
2022-12-15T22:41:17.368Z,3.42
2022-12-15T22:44:04.969Z,3.17
2022-12-15T22:46:52.635Z,2.75
2022-12-15T22:49:43.754Z,3.39
2022-12-15T22:52:31.335Z,3.53
2022-12-15T22:55:18.898Z,3.12
2022-12-15T22:58:06.512Z,3.08
2022-12-15T23:00:54.127Z,3.20
2022-12-15T23:03:42.390Z,3.57
2022-12-15T23:06:29.963Z,2.88
2022-12-15T23:09:17.571Z,3.13
2022-12-15T23:12:05.129Z,2.93
2022-12-15T23:14:52.770Z,2.67
2022-12-15T23:17:41.006Z,2.64
2022-12-15T23:20:30.334Z,2.53
2022-12-15T23:23:17.906Z,2.42
2022-12-15T23:26:05.501Z,2.39
2022-12-15T23:28:53.091Z,2.31
2022-12-15T23:31:42.782Z,2.07
2022-12-15T23:34:30.405Z,1.88
2022-12-15T23:37:17.974Z,2.12
2022-12-15T23:40:05.708Z,2.12
2022-12-15T23:42:53.277Z,1.75
2022-12-15T23:45:41.508Z,1.72
2022-12-15T23:48:29.063Z,1.60
2022-12-15T23:51:16.682Z,1.45
2022-12-15T23:54:04.241Z,1.41
2022-12-15T23:56:51.826Z,1.66
2022-12-15T23:59:39.379Z,1.71
